createdAt,value
2018-07-17T00:00:11.582Z,4.60
2018-07-17T00:02:40.692Z,3.90
2018-07-17T00:05:10.286Z,3.93
2018-07-17T00:07:39.332Z,3.90
2018-07-17T00:10:08.704Z,4.93
2018-07-17T00:12:37.750Z,4.03
2018-07-17T00:15:06.925Z,4.03
2018-07-17T00:17:36.421Z,3.80
2018-07-17T00:20:05.421Z,3.90
2018-07-17T00:22:34.387Z,4.70
2018-07-17T00:25:03.447Z,3.83
2018-07-17T00:27:32.283Z,4.40
2018-07-17T00:30:01.121Z,4.83
2018-07-17T00:32:29.995Z,4.20
2018-07-17T00:34:58.833Z,5.50
2018-07-17T00:37:27.730Z,5.50
2018-07-17T00:39:56.649Z,4.87
2018-07-17T00:42:25.559Z,4.90
2018-07-17T00:44:54.424Z,5.07
2018-07-17T00:47:23.330Z,5.60
2018-07-17T00:49:52.153Z,5.03
2018-07-17T00:52:21.055Z,6.57
2018-07-17T00:54:49.924Z,6.03
2018-07-17T00:57:18.852Z,6.40
2018-07-17T00:59:47.801Z,6.37
2018-07-17T01:02:21.877Z,6.37
2018-07-17T01:04:55.848Z,6.40
2018-07-17T01:07:29.878Z,8.53
2018-07-17T01:10:03.831Z,6.47
2018-07-17T01:12:31.755Z,6.53
2018-07-17T01:15:07.529Z,7.33
2018-07-17T01:17:37.157Z,6.40
2018-07-17T01:20:06.120Z,6.47
2018-07-17T01:22:35.112Z,6.90
2018-07-17T01:25:04.170Z,7.97
2018-07-17T01:27:33.013Z,5.33
2018-07-17T01:30:01.819Z,5.03
2018-07-17T01:32:30.703Z,5.37
2018-07-17T01:34:59.748Z,6.93
2018-07-17T01:37:28.597Z,4.80
2018-07-17T01:39:57.491Z,4.60
2018-07-17T01:42:26.384Z,7.10
2018-07-17T01:44:55.288Z,5.60
2018-07-17T01:47:24.203Z,5.70
2018-07-17T01:49:53.121Z,5.37
2018-07-17T01:52:21.968Z,5.67
2018-07-17T01:54:50.828Z,6.63
2018-07-17T01:57:19.748Z,5.80
2018-07-17T01:59:48.593Z,5.97
2018-07-17T02:02:17.520Z,5.27
2018-07-17T02:04:46.451Z,5.60
2018-07-17T02:07:15.295Z,4.93
2018-07-17T02:09:44.280Z,5.03
2018-07-17T02:12:13.181Z,6.80
2018-07-17T02:14:42.030Z,5.10
2018-07-17T02:17:10.969Z,4.67
2018-07-17T02:19:39.766Z,7.10
2018-07-17T02:22:08.702Z,5.77
2018-07-17T02:24:37.612Z,4.53
2018-07-17T02:27:06.625Z,5.33
2018-07-17T02:29:35.596Z,6.93
2018-07-17T02:32:04.563Z,4.57
2018-07-17T02:34:33.462Z,4.90
2018-07-17T02:37:02.375Z,6.03
2018-07-17T02:39:31.308Z,4.93
2018-07-17T02:42:00.132Z,5.83
2018-07-17T02:44:29.094Z,6.40
2018-07-17T02:46:58.063Z,5.53
2018-07-17T02:49:26.988Z,6.00
2018-07-17T02:51:55.830Z,5.50
2018-07-17T02:54:24.773Z,5.53
2018-07-17T02:56:53.590Z,5.57
2018-07-17T02:59:22.503Z,5.73
2018-07-17T03:01:51.406Z,5.47
2018-07-17T03:04:20.254Z,5.30
2018-07-17T03:06:49.193Z,5.23
2018-07-17T03:09:18.037Z,5.27
2018-07-17T03:11:46.931Z,6.50
2018-07-17T03:14:15.962Z,8.00
2018-07-17T03:16:44.840Z,4.93
2018-07-17T03:19:13.698Z,8.10
2018-07-17T03:21:42.539Z,5.33
2018-07-17T03:24:11.388Z,6.00
2018-07-17T03:26:40.245Z,5.80
2018-07-17T03:29:09.114Z,5.27
2018-07-17T03:31:38.073Z,5.80
2018-07-17T03:34:06.931Z,6.50
2018-07-17T03:36:35.845Z,6.27
2018-07-17T03:39:06.217Z,5.60
2018-07-17T03:41:35.038Z,8.33
2018-07-17T03:44:03.942Z,6.47
2018-07-17T03:46:32.862Z,5.63
2018-07-17T03:49:01.691Z,5.63
2018-07-17T03:51:30.535Z,5.43
2018-07-17T03:53:59.454Z,16.60
2018-07-17T03:56:28.305Z,5.90
2018-07-17T03:58:57.134Z,7.27
2018-07-17T04:01:26.117Z,6.27
2018-07-17T04:03:54.945Z,6.57
2018-07-17T04:06:23.856Z,30.87
2018-07-17T04:08:52.789Z,10.80
2018-07-17T04:11:21.706Z,6.30
2018-07-17T04:13:50.546Z,6.30
2018-07-17T04:16:19.559Z,6.10
2018-07-17T04:18:48.482Z,6.37
2018-07-17T04:21:17.419Z,6.37
2018-07-17T04:23:46.313Z,6.37
2018-07-17T04:26:15.191Z,6.10
2018-07-17T04:28:43.994Z,6.23
2018-07-17T04:31:12.869Z,8.00
2018-07-17T04:33:41.800Z,6.57
2018-07-17T04:36:10.678Z,6.10
2018-07-17T04:38:39.647Z,7.70
2018-07-17T04:41:08.509Z,5.60
2018-07-17T04:43:37.567Z,6.30
2018-07-17T04:46:06.707Z,6.97
2018-07-17T04:48:35.565Z,7.37
2018-07-17T04:51:04.530Z,10.63
2018-07-17T04:53:33.517Z,7.10
2018-07-17T04:56:02.450Z,7.77
2018-07-17T04:58:31.541Z,8.80
2018-07-17T05:01:00.517Z,8.07
2018-07-17T05:03:29.729Z,8.17
2018-07-17T05:05:58.608Z,9.20
2018-07-17T05:08:27.584Z,7.33
2018-07-17T05:10:56.508Z,7.37
2018-07-17T05:13:25.516Z,9.20
2018-07-17T05:15:54.501Z,10.40
2018-07-17T05:18:23.370Z,8.00
2018-07-17T05:20:52.311Z,7.00
2018-07-17T05:23:21.396Z,7.53
2018-07-17T05:25:50.332Z,8.57
2018-07-17T05:28:19.194Z,6.93
2018-07-17T05:30:48.229Z,9.73
2018-07-17T05:33:17.117Z,11.87
2018-07-17T05:35:46.117Z,10.53
2018-07-17T05:38:15.270Z,7.43
2018-07-17T05:40:44.205Z,10.23
2018-07-17T05:43:13.098Z,10.00
2018-07-17T05:45:42.052Z,11.23
2018-07-17T05:48:11.122Z,8.27
2018-07-17T05:50:40.151Z,7.93
2018-07-17T05:53:09.122Z,12.33
2018-07-17T05:55:38.035Z,9.57
2018-07-17T05:58:06.951Z,10.10
2018-07-17T06:00:35.811Z,8.77
2018-07-17T06:03:04.672Z,7.57
2018-07-17T06:05:33.546Z,7.33
2018-07-17T06:08:02.544Z,8.17
2018-07-17T06:10:31.484Z,7.43
2018-07-17T06:13:00.413Z,9.33
2018-07-17T06:15:29.393Z,9.73
2018-07-17T06:17:58.312Z,10.43
2018-07-17T06:20:27.125Z,9.87
2018-07-17T06:22:56.139Z,11.03
2018-07-17T06:25:25.246Z,8.80
2018-07-17T06:27:54.711Z,14.17
2018-07-17T06:30:23.856Z,7.73
2018-07-17T06:32:53.624Z,12.17
2018-07-17T06:35:22.566Z,8.10
2018-07-17T06:37:51.609Z,9.27
2018-07-17T06:40:20.590Z,8.93
2018-07-17T06:42:49.502Z,8.30
2018-07-17T06:45:18.524Z,9.57
2018-07-17T06:47:47.474Z,9.47
2018-07-17T06:50:16.678Z,7.40
2018-07-17T06:52:45.630Z,11.90
2018-07-17T06:55:14.595Z,7.43
2018-07-17T06:57:43.510Z,10.50
2018-07-17T07:00:12.485Z,7.67
2018-07-17T07:02:41.409Z,7.03
2018-07-17T07:05:10.305Z,11.20
2018-07-17T07:07:39.310Z,9.20
2018-07-17T07:10:08.314Z,10.17
2018-07-17T07:12:37.186Z,7.30
2018-07-17T07:15:06.225Z,7.87
2018-07-17T07:17:35.268Z,9.20
2018-07-17T07:20:04.329Z,10.37
2018-07-17T07:22:33.302Z,10.13
2018-07-17T07:25:02.205Z,8.60
2018-07-17T07:27:31.321Z,9.40
2018-07-17T07:30:00.348Z,7.73
2018-07-17T07:32:29.466Z,8.60
2018-07-17T07:34:58.469Z,10.97
2018-07-17T07:37:27.572Z,9.10
2018-07-17T07:39:56.488Z,7.47
2018-07-17T07:42:26.106Z,12.80
2018-07-17T07:44:55.309Z,9.00
2018-07-17T07:47:24.306Z,8.57
2018-07-17T07:49:53.260Z,8.77
2018-07-17T07:52:22.736Z,7.57
2018-07-17T07:54:52.010Z,8.13
2018-07-17T07:57:22.063Z,8.47
2018-07-17T07:59:51.339Z,10.53
2018-07-17T08:02:20.646Z,7.03
2018-07-17T08:04:49.818Z,6.90
2018-07-17T08:07:18.994Z,6.90
2018-07-17T08:09:48.132Z,6.03
2018-07-17T08:12:17.524Z,7.03
2018-07-17T08:14:46.757Z,6.63
2018-07-17T08:17:16.315Z,7.10
2018-07-17T08:19:45.327Z,7.17
2018-07-17T08:22:14.448Z,10.73
2018-07-17T08:24:43.586Z,6.93
2018-07-17T08:27:12.704Z,8.40
2018-07-17T08:29:41.888Z,7.00
2018-07-17T08:32:11.026Z,9.67
2018-07-17T08:34:40.204Z,7.57
2018-07-17T08:37:09.413Z,7.83
2018-07-17T08:39:38.665Z,7.03
2018-07-17T08:42:08.302Z,7.53
2018-07-17T08:44:37.670Z,7.00
2018-07-17T08:47:07.081Z,9.33
2018-07-17T08:49:36.359Z,7.30
2018-07-17T08:52:05.598Z,8.13
2018-07-17T08:54:34.878Z,8.20
2018-07-17T08:57:04.098Z,9.97
2018-07-17T08:59:33.270Z,7.17
2018-07-17T09:02:02.592Z,7.07
2018-07-17T09:04:31.794Z,10.60
2018-07-17T09:07:01.125Z,7.20
2018-07-17T09:09:30.204Z,8.47
2018-07-17T09:11:59.457Z,7.07
2018-07-17T09:14:28.768Z,7.83
2018-07-17T09:16:58.581Z,8.73
2018-07-17T09:19:27.955Z,7.63
2018-07-17T09:21:57.088Z,7.27
2018-07-17T09:24:26.135Z,7.20
2018-07-17T09:26:55.446Z,7.23
2018-07-17T09:29:24.610Z,18.43
2018-07-17T09:31:53.554Z,33.27
2018-07-17T09:34:23.257Z,35.97
2018-07-17T09:36:52.498Z,21.43
2018-07-17T09:39:21.418Z,19.97
2018-07-17T09:41:50.446Z,17.63
2018-07-17T09:44:19.423Z,18.87
2018-07-17T09:46:48.336Z,15.77
2018-07-17T09:49:17.166Z,10.97
2018-07-17T09:51:46.108Z,10.53
2018-07-17T09:54:15.051Z,14.03
2018-07-17T09:56:44.007Z,8.27
2018-07-17T09:59:12.951Z,8.23
2018-07-17T10:01:47.226Z,12.20
2018-07-17T10:04:16.249Z,8.70
2018-07-17T10:06:45.814Z,11.87
2018-07-17T10:09:14.693Z,7.80
2018-07-17T10:11:43.675Z,9.50
2018-07-17T10:14:12.629Z,10.83
2018-07-17T10:16:41.671Z,7.67
2018-07-17T10:19:10.580Z,7.40
2018-07-17T10:21:39.481Z,7.80
2018-07-17T10:24:08.470Z,7.93
2018-07-17T10:26:37.796Z,10.03
2018-07-17T10:29:06.790Z,5.00
2018-07-17T10:31:35.910Z,9.20
2018-07-17T10:34:05.108Z,6.83
2018-07-17T10:36:34.121Z,6.33
2018-07-17T10:39:03.193Z,5.73
2018-07-17T10:41:32.380Z,4.67
2018-07-17T10:44:01.293Z,4.50
2018-07-17T10:46:30.361Z,4.43
2018-07-17T10:48:59.466Z,5.60
2018-07-17T10:51:28.598Z,6.73
2018-07-17T10:53:57.595Z,4.80
2018-07-17T10:56:26.578Z,7.83
2018-07-17T10:58:55.849Z,4.87
2018-07-17T11:01:24.874Z,7.53
2018-07-17T11:03:53.824Z,5.17
2018-07-17T11:06:22.901Z,6.83
2018-07-17T11:08:51.966Z,5.47
2018-07-17T11:11:21.004Z,7.07
2018-07-17T11:13:50.361Z,6.10
2018-07-17T11:16:19.448Z,7.77
2018-07-17T11:18:48.606Z,5.10
2018-07-17T11:21:17.886Z,4.83
2018-07-17T11:23:47.043Z,6.43
2018-07-17T11:26:15.960Z,5.97
2018-07-17T11:28:44.801Z,4.30
2018-07-17T11:31:14.181Z,3.70
2018-07-17T11:33:43.584Z,5.20
2018-07-17T11:36:13.043Z,5.90
2018-07-17T11:38:43.112Z,4.60
2018-07-17T11:41:13.826Z,4.80
2018-07-17T11:43:42.772Z,4.03
2018-07-17T11:46:11.847Z,3.90
2018-07-17T11:48:40.992Z,4.47
2018-07-17T11:51:09.969Z,4.57
2018-07-17T11:53:38.989Z,4.03
2018-07-17T11:56:08.019Z,3.93
2018-07-17T11:58:36.931Z,3.47
2018-07-17T12:01:06.001Z,3.90
2018-07-17T12:03:34.962Z,3.67
2018-07-17T12:06:04.232Z,3.73
2018-07-17T12:08:33.259Z,3.90
2018-07-17T12:11:02.273Z,4.37
2018-07-17T12:13:31.245Z,3.87
2018-07-17T12:16:00.241Z,4.27
2018-07-17T12:18:29.248Z,2.50
2018-07-17T12:20:58.242Z,4.30
2018-07-17T12:23:27.173Z,5.60
2018-07-17T12:25:56.133Z,4.77
2018-07-17T12:28:25.285Z,3.93
2018-07-17T12:30:54.513Z,4.93
2018-07-17T12:33:23.630Z,4.47
2018-07-17T12:35:52.515Z,4.63
2018-07-17T12:38:21.551Z,3.30
2018-07-17T12:40:50.730Z,2.13
2018-07-17T12:43:19.748Z,2.70
2018-07-17T12:45:48.668Z,3.03
2018-07-17T12:48:17.673Z,3.80
2018-07-17T12:50:46.709Z,4.63
2018-07-17T12:53:15.938Z,4.03
2018-07-17T12:55:45.200Z,2.30
2018-07-17T12:58:14.634Z,2.80
2018-07-17T13:00:43.638Z,4.70
2018-07-17T13:03:12.775Z,3.23
2018-07-17T13:05:41.949Z,3.27
2018-07-17T13:08:11.145Z,4.27
2018-07-17T13:10:40.137Z,5.10
2018-07-17T13:13:09.109Z,3.43
2018-07-17T13:15:38.324Z,5.63
2018-07-17T13:18:07.306Z,4.03
2018-07-17T13:20:36.344Z,4.83
2018-07-17T13:23:05.604Z,3.13
2018-07-17T13:25:34.979Z,3.67
2018-07-17T13:28:03.932Z,4.40
2018-07-17T13:30:33.154Z,4.40
2018-07-17T13:33:03.153Z,3.03
2018-07-17T13:35:32.096Z,5.67
2018-07-17T13:38:01.157Z,3.50
2018-07-17T13:40:30.403Z,4.13
2018-07-17T13:42:59.432Z,3.30
2018-07-17T13:45:28.631Z,4.80
2018-07-17T13:47:57.864Z,6.13
2018-07-17T13:50:27.114Z,8.37
2018-07-17T13:52:56.141Z,5.37
2018-07-17T13:55:25.218Z,4.47
2018-07-17T13:57:54.496Z,3.60
2018-07-17T14:00:23.713Z,2.90
2018-07-17T14:02:52.665Z,5.03
2018-07-17T14:05:21.659Z,4.17
2018-07-17T14:07:50.682Z,5.73
2018-07-17T14:10:20.292Z,4.73
2018-07-17T14:12:49.416Z,5.67
2018-07-17T14:15:18.394Z,4.93
2018-07-17T14:17:47.465Z,4.57
2018-07-17T14:20:16.826Z,7.83
2018-07-17T14:22:46.089Z,4.07
2018-07-17T14:25:15.117Z,4.17
2018-07-17T14:27:44.075Z,5.83
2018-07-17T14:30:13.083Z,2.67
2018-07-17T14:32:42.523Z,3.83
2018-07-17T14:35:11.736Z,3.77
2018-07-17T14:37:40.700Z,5.03
2018-07-17T14:40:09.840Z,4.37
2018-07-17T14:42:39.160Z,4.70
2018-07-17T14:45:08.419Z,4.43
2018-07-17T14:47:37.578Z,6.33
2018-07-17T14:50:07.410Z,3.17
2018-07-17T14:52:36.448Z,5.10
2018-07-17T14:55:05.912Z,4.47
2018-07-17T14:57:34.860Z,5.43
2018-07-17T15:00:03.822Z,3.97
2018-07-17T15:02:32.836Z,4.27
2018-07-17T15:05:01.829Z,5.27
2018-07-17T15:07:30.846Z,3.37
2018-07-17T15:10:00.477Z,2.67
2018-07-17T15:12:29.346Z,6.43
2018-07-17T15:14:58.304Z,4.80
2018-07-17T15:17:27.277Z,3.73
2018-07-17T15:19:56.329Z,6.13
2018-07-17T15:22:25.536Z,4.67
2018-07-17T15:24:54.564Z,6.13
2018-07-17T15:27:23.522Z,3.67
2018-07-17T15:29:52.894Z,3.50
2018-07-17T15:32:21.971Z,6.40
2018-07-17T15:34:50.863Z,3.67
2018-07-17T15:37:19.856Z,10.03
2018-07-17T15:39:48.921Z,2.60
2018-07-17T15:42:18.004Z,5.57
2018-07-17T15:44:47.257Z,6.57
2018-07-17T15:47:16.665Z,3.87
2018-07-17T15:49:45.621Z,4.23
2018-07-17T15:52:14.630Z,4.17
2018-07-17T15:54:44.066Z,5.07
2018-07-17T15:57:13.122Z,3.63
2018-07-17T15:59:42.102Z,4.00
2018-07-17T16:02:11.099Z,4.00
2018-07-17T16:04:40.094Z,2.97
2018-07-17T16:07:09.240Z,3.20
2018-07-17T16:09:38.387Z,4.80
2018-07-17T16:12:07.537Z,3.17
2018-07-17T16:14:36.612Z,6.80
2018-07-17T16:17:05.639Z,4.73
2018-07-17T16:19:34.729Z,4.93
2018-07-17T16:22:03.676Z,5.43
2018-07-17T16:24:32.652Z,3.97
2018-07-17T16:27:01.641Z,3.50
2018-07-17T16:29:30.584Z,3.43
2018-07-17T16:31:59.514Z,4.23
2018-07-17T16:34:28.532Z,4.83
2018-07-17T16:36:57.525Z,4.43
2018-07-17T16:39:26.517Z,4.30
2018-07-17T16:41:55.437Z,5.20
2018-07-17T16:44:24.549Z,3.50
2018-07-17T16:46:53.634Z,4.93
2018-07-17T16:49:22.820Z,4.93
2018-07-17T16:51:51.713Z,3.27
2018-07-17T16:54:20.808Z,4.20
2018-07-17T16:56:49.853Z,4.53
2018-07-17T16:59:18.986Z,4.83
2018-07-17T17:01:48.195Z,7.30
2018-07-17T17:04:17.256Z,3.20
2018-07-17T17:06:46.160Z,3.10
2018-07-17T17:09:15.215Z,4.77
2018-07-17T17:11:44.225Z,3.83
2018-07-17T17:14:13.148Z,3.67
2018-07-17T17:16:42.136Z,5.87
2018-07-17T17:19:11.039Z,7.60
2018-07-17T17:21:40.080Z,4.53
2018-07-17T17:24:09.307Z,5.47
2018-07-17T17:26:38.170Z,5.37
2018-07-17T17:29:07.146Z,4.97
2018-07-17T17:31:36.092Z,5.13
2018-07-17T17:34:04.980Z,5.40
2018-07-17T17:36:34.002Z,6.07
2018-07-17T17:39:03.017Z,7.40
2018-07-17T17:41:32.168Z,9.30
2018-07-17T17:44:01.104Z,4.17
2018-07-17T17:46:30.057Z,5.17
2018-07-17T17:48:59.152Z,5.97
2018-07-17T17:51:28.040Z,5.20
2018-07-17T17:53:57.817Z,7.03
2018-07-17T17:56:26.899Z,4.13
2018-07-17T17:58:55.770Z,3.60
2018-07-17T18:01:24.795Z,3.87
2018-07-17T18:03:53.818Z,5.93
2018-07-17T18:06:22.779Z,6.33
2018-07-17T18:08:51.710Z,5.30
2018-07-17T18:11:20.633Z,5.53
2018-07-17T18:13:49.605Z,8.33
2018-07-17T18:16:20.188Z,7.30
2018-07-17T18:18:49.484Z,7.90
2018-07-17T18:21:18.396Z,7.90
2018-07-17T18:23:47.402Z,6.10
2018-07-17T18:26:16.535Z,7.67
2018-07-17T18:28:45.482Z,8.17
2018-07-17T18:31:14.461Z,7.70
2018-07-17T18:33:43.372Z,9.50
2018-07-17T18:36:12.326Z,8.97
2018-07-17T18:38:41.397Z,7.17
2018-07-17T18:41:10.509Z,10.70
2018-07-17T18:43:39.605Z,7.50
2018-07-17T18:46:08.692Z,6.73
2018-07-17T18:48:37.733Z,7.40
2018-07-17T18:51:06.687Z,5.80
2018-07-17T18:53:35.677Z,5.63
2018-07-17T18:56:04.686Z,5.90
2018-07-17T18:58:34.554Z,7.70
2018-07-17T19:01:04.063Z,5.50
2018-07-17T19:03:33.062Z,5.13
2018-07-17T19:06:02.063Z,5.60
2018-07-17T19:08:32.662Z,13.07
2018-07-17T19:11:01.584Z,9.17
2018-07-17T19:13:30.480Z,5.87
2018-07-17T19:15:59.406Z,5.00
2018-07-17T19:18:28.392Z,9.33
2018-07-17T19:20:57.259Z,8.13
2018-07-17T19:23:26.182Z,5.50
2018-07-17T19:25:55.276Z,4.93
2018-07-17T19:28:24.242Z,8.23
2018-07-17T19:30:53.140Z,6.13
2018-07-17T19:33:22.038Z,6.27
2018-07-17T19:35:51.168Z,4.57
2018-07-17T19:38:20.105Z,6.67
2018-07-17T19:40:49.061Z,4.13
2018-07-17T19:43:18.091Z,5.40
2018-07-17T19:45:46.973Z,4.10
2018-07-17T19:48:15.993Z,5.23
2018-07-17T19:50:44.932Z,4.93
2018-07-17T19:53:13.896Z,6.50
2018-07-17T19:55:42.810Z,3.97
2018-07-17T19:58:11.727Z,5.57
2018-07-17T20:00:40.753Z,4.30
2018-07-17T20:03:09.640Z,3.70
2018-07-17T20:05:38.690Z,5.00
2018-07-17T20:08:08.163Z,3.33
2018-07-17T20:10:37.045Z,3.20
2018-07-17T20:13:06.113Z,4.57
2018-07-17T20:15:35.161Z,4.20
2018-07-17T20:18:04.087Z,3.20
2018-07-17T20:20:33.345Z,5.00
2018-07-17T20:23:02.304Z,4.77
2018-07-17T20:25:31.265Z,6.33
2018-07-17T20:28:00.142Z,4.43
2018-07-17T20:30:29.112Z,3.00
2018-07-17T20:32:58.076Z,3.70
2018-07-17T20:35:27.333Z,5.43
2018-07-17T20:37:56.224Z,4.53
2018-07-17T20:40:25.090Z,4.73
2018-07-17T20:42:54.482Z,4.47
2018-07-17T20:45:23.534Z,3.17
2018-07-17T20:47:52.446Z,4.13
2018-07-17T20:50:21.414Z,3.97
2018-07-17T20:52:50.367Z,4.13
2018-07-17T20:55:19.487Z,4.50
2018-07-17T20:57:48.417Z,2.67
2018-07-17T21:00:17.409Z,7.20
2018-07-17T21:02:46.478Z,3.37
2018-07-17T21:05:15.530Z,4.30
2018-07-17T21:07:44.499Z,4.93
2018-07-17T21:10:13.545Z,4.67
2018-07-17T21:12:42.697Z,3.13
2018-07-17T21:15:12.619Z,4.10
2018-07-17T21:17:41.580Z,3.63
2018-07-17T21:20:10.155Z,4.10
2018-07-17T21:22:39.200Z,3.90
2018-07-17T21:25:08.144Z,4.00
2018-07-17T21:27:38.282Z,5.33
2018-07-17T21:30:07.370Z,3.63
2018-07-17T21:32:36.434Z,3.30
2018-07-17T21:35:05.353Z,3.57
2018-07-17T21:37:34.368Z,3.90
2018-07-17T21:40:03.423Z,3.10
2018-07-17T21:42:32.379Z,4.27
2018-07-17T21:45:01.471Z,4.57
2018-07-17T21:47:30.369Z,4.03
2018-07-17T21:52:38.318Z,3.17
2018-07-17T21:55:07.331Z,3.40
2018-07-17T21:57:43.298Z,6.03
2018-07-17T22:00:19.159Z,3.53
2018-07-17T22:02:48.249Z,5.43
2018-07-17T22:05:17.181Z,4.73
2018-07-17T22:07:46.190Z,4.33
2018-07-17T22:10:15.162Z,5.97
2018-07-17T22:12:44.097Z,4.63
2018-07-17T22:15:13.116Z,4.50
2018-07-17T22:17:42.169Z,4.77
2018-07-17T22:20:11.198Z,4.07
2018-07-17T22:22:40.252Z,4.67
2018-07-17T22:25:09.789Z,4.77
2018-07-17T22:27:38.668Z,6.17
2018-07-17T22:30:07.702Z,7.43
2018-07-17T22:32:36.598Z,5.63
2018-07-17T22:35:05.723Z,4.67
2018-07-17T22:37:34.767Z,4.97
2018-07-17T22:40:03.820Z,5.43
2018-07-17T22:42:32.745Z,5.30
2018-07-17T22:45:01.855Z,4.90
2018-07-17T22:47:30.911Z,7.07
2018-07-17T22:49:59.821Z,5.73
2018-07-17T22:52:28.999Z,4.97
2018-07-17T22:54:58.024Z,5.30
2018-07-17T22:57:26.935Z,5.80
2018-07-17T22:59:55.966Z,5.53
2018-07-17T23:02:25.126Z,5.67
2018-07-17T23:04:54.135Z,6.27
2018-07-17T23:07:23.123Z,7.20
2018-07-17T23:09:52.222Z,5.97
2018-07-17T23:12:21.214Z,5.70
2018-07-17T23:14:50.197Z,6.90
2018-07-17T23:17:19.202Z,5.93
2018-07-17T23:19:48.102Z,5.70
2018-07-17T23:22:22.235Z,5.93
2018-07-17T23:24:51.350Z,6.30
2018-07-17T23:27:20.408Z,5.70
2018-07-17T23:29:49.395Z,6.20
2018-07-17T23:32:18.491Z,7.37
2018-07-17T23:34:47.466Z,6.67
2018-07-17T23:37:16.558Z,8.90
2018-07-17T23:39:45.719Z,6.93
2018-07-17T23:42:14.607Z,7.87
2018-07-17T23:44:43.649Z,7.77
2018-07-17T23:47:12.641Z,7.60
2018-07-17T23:49:44.086Z,7.87
2018-07-17T23:52:13.072Z,7.80
2018-07-17T23:54:42.171Z,7.73
2018-07-17T23:57:11.202Z,8.03
2018-07-17T23:59:40.277Z,8.30
